Time;durP1;ratioP1;P1;durP2;ratioP2;P2;SDS_P1;SDS_P2;PMS_P1;PMS_P2;Temp;Humidity;BMP_temperature;BMP_pressure;BME280_temperature;BME280_humidity;BME280_pressure;Samples;Min_cycle;Max_cycle;Signal;HPM_P1;HPM_P2
2023/09/08 00:01:42;;;;;;;7.93;5.97;;;;;;;;;;5089979;28;20036;-60
2023/09/08 00:04:08;;;;;;;8.52;5.10;;;;;;;;;;5089635;28;20051;-59
2023/09/08 00:06:34;;;;;;;8.77;5.82;;;;;;;;;;5089889;28;20047;-59
2023/09/08 00:09:02;;;;;;;10.02;5.78;;;;;;;;;;5090218;28;20399;-61
2023/09/08 00:11:28;;;;;;;8.23;5.50;;;;;;;;;;5090524;28;20379;-60
2023/09/08 00:13:54;;;;;;;8.00;5.30;;;;;;;;;;5089164;28;20043;-60
2023/09/08 00:16:20;;;;;;;10.90;6.05;;;;;;;;;;5089354;28;20063;-60
2023/09/08 00:18:46;;;;;;;7.85;5.78;;;;;;;;;;5090329;28;20493;-60
2023/09/08 00:21:12;;;;;;;10.27;5.82;;;;;;;;;;5088494;28;20133;-60
2023/09/08 00:23:38;;;;;;;7.50;6.15;;;;;;;;;;5089111;28;20048;-60
2023/09/08 00:26:04;;;;;;;7.72;5.80;;;;;;;;;;5089891;28;20036;-60
2023/09/08 00:28:30;;;;;;;10.65;6.22;;;;;;;;;;5089335;28;20491;-60
2023/09/08 00:30:57;;;;;;;8.50;5.53;;;;;;;;;;5089490;28;20043;-60
2023/09/08 00:33:23;;;;;;;7.72;5.72;;;;;;;;;;5069485;28;20499;-60
2023/09/08 00:35:50;;;;;;;8.02;5.55;;;;;;;;;;5089604;28;20043;-60
2023/09/08 00:38:16;;;;;;;9.65;6.20;;;;;;;;;;5085138;28;20050;-59
2023/09/08 00:40:43;;;;;;;9.70;5.90;;;;;;;;;;5070310;28;20507;-60
2023/09/08 00:43:09;;;;;;;7.25;5.70;;;;;;;;;;5069650;28;20195;-60
2023/09/08 00:45:41;;;;;;;7.60;5.85;;;;;;;;;;5071343;28;20386;-59
2023/09/08 00:48:08;;;;;;;9.40;6.43;;;;;;;;;;5086585;28;20495;-59
2023/09/08 00:50:38;;;;;;;8.13;5.85;;;;;;;;;;5071323;28;20031;-59
2023/09/08 00:53:06;;;;;;;10.15;6.35;;;;;;;;;;5086077;28;20039;-59
2023/09/08 00:55:33;;;;;;;12.32;6.57;;;;;;;;;;5089137;28;20499;-59
2023/09/08 00:57:59;;;;;;;9.43;6.22;;;;;;;;;;5071202;28;20040;-59
2023/09/08 01:00:26;;;;;;;8.75;5.90;;;;;;;;;;5088560;28;20044;-59
2023/09/08 01:02:52;;;;;;;9.68;5.88;;;;;;;;;;5071667;28;20040;-59
2023/09/08 01:05:20;;;;;;;11.52;6.45;;;;;;;;;;5071035;28;20044;-60
2023/09/08 01:07:48;;;;;;;8.70;6.47;;;;;;;;;;5090170;28;20052;-59
2023/09/08 01:10:15;;;;;;;9.63;5.95;;;;;;;;;;5067803;28;20410;-59
2023/09/08 01:12:41;;;;;;;8.23;6.15;;;;;;;;;;5089150;28;20537;-59
2023/09/08 01:15:08;;;;;;;9.55;6.63;;;;;;;;;;5087655;28;20055;-60
2023/09/08 01:17:34;;;;;;;8.48;6.10;;;;;;;;;;5071228;28;20036;-59
2023/09/08 01:20:22;;;;;;;8.27;6.47;;;;;;;;;;5092012;28;20051;-60
2023/09/08 01:23:12;;;;;;;9.68;6.15;;;;;;;;;;5070014;28;20055;-59
2023/09/08 01:25:59;;;;;;;8.23;6.18;;;;;;;;;;5070706;28;20035;-59
2023/09/08 01:28:26;;;;;;;9.00;6.78;;;;;;;;;;5086706;28;20036;-59
2023/09/08 01:30:55;;;;;;;10.40;5.85;;;;;;;;;;5089710;28;20410;-60
2023/09/08 01:33:22;;;;;;;9.35;6.68;;;;;;;;;;5085987;28;20505;-60
2023/09/08 01:35:48;;;;;;;12.02;6.93;;;;;;;;;;5067853;28;20036;-60
2023/09/08 01:38:14;;;;;;;10.40;7.00;;;;;;;;;;5088083;28;20036;-60
2023/09/08 01:40:41;;;;;;;9.77;6.78;;;;;;;;;;5087601;28;20048;-60
2023/09/08 01:43:07;;;;;;;10.40;6.65;;;;;;;;;;5068388;28;20482;-60
2023/09/08 01:45:33;;;;;;;12.77;6.57;;;;;;;;;;5091570;28;20048;-60
2023/09/08 01:47:59;;;;;;;8.90;7.07;;;;;;;;;;5067651;28;20036;-60
2023/09/08 01:50:26;;;;;;;11.98;7.32;;;;;;;;;;5069589;28;20039;-60
2023/09/08 01:52:52;;;;;;;8.88;6.60;;;;;;;;;;5067044;28;20036;-60
2023/09/08 01:55:18;;;;;;;10.27;7.00;;;;;;;;;;5067261;28;20043;-60
2023/09/08 01:57:44;;;;;;;12.65;7.63;;;;;;;;;;5069626;28;20403;-60
2023/09/08 02:00:11;;;;;;;10.63;7.07;;;;;;;;;;5086683;28;20044;-60
2023/09/08 02:02:41;;;;;;;10.90;7.03;;;;;;;;;;5070237;28;20043;-60
2023/09/08 02:05:08;;;;;;;9.85;7.43;;;;;;;;;;5067609;28;20418;-60
2023/09/08 02:07:34;;;;;;;12.77;7.20;;;;;;;;;;5070545;28;20044;-60
2023/09/08 02:10:00;;;;;;;12.40;6.63;;;;;;;;;;5053460;28;20032;-60
2023/09/08 02:12:26;;;;;;;11.23;7.43;;;;;;;;;;5087664;28;20051;-60
2023/09/08 02:14:52;;;;;;;8.68;6.43;;;;;;;;;;5051933;28;20043;-60
2023/09/08 02:17:18;;;;;;;11.40;7.18;;;;;;;;;;5068269;28;20044;-60
2023/09/08 02:19:44;;;;;;;9.38;7.22;;;;;;;;;;5086213;28;20028;-60
2023/09/08 02:22:11;;;;;;;13.18;6.70;;;;;;;;;;5084462;28;20032;-60
2023/09/08 02:24:37;;;;;;;13.73;7.10;;;;;;;;;;5069179;28;20027;-60
2023/09/08 02:27:03;;;;;;;9.63;6.78;;;;;;;;;;5070273;28;20063;-60
2023/09/08 02:29:31;;;;;;;9.95;6.65;;;;;;;;;;5068793;28;20055;-60
2023/09/08 02:31:57;;;;;;;11.27;7.45;;;;;;;;;;5070204;28;20044;-60
2023/09/08 02:34:23;;;;;;;11.13;6.80;;;;;;;;;;5067922;28;21403;-60
2023/09/08 02:36:50;;;;;;;9.13;6.80;;;;;;;;;;5069718;28;20035;-60
2023/09/08 02:39:18;;;;;;;9.53;6.97;;;;;;;;;;5070290;28;20032;-60
2023/09/08 02:41:44;;;;;;;11.35;6.95;;;;;;;;;;5087738;28;20048;-60
2023/09/08 02:44:10;;;;;;;10.82;6.95;;;;;;;;;;5089643;28;20039;-60
2023/09/08 02:46:36;;;;;;;12.90;7.03;;;;;;;;;;5086202;28;20025;-60
2023/09/08 02:49:03;;;;;;;10.82;7.30;;;;;;;;;;5074801;28;20063;-60
2023/09/08 02:51:29;;;;;;;12.13;7.10;;;;;;;;;;5072509;28;20052;-59
2023/09/08 02:53:55;;;;;;;10.25;6.85;;;;;;;;;;5075103;28;20040;-59
2023/09/08 02:56:21;;;;;;;10.95;7.15;;;;;;;;;;5086635;28;20495;-60
2023/09/08 02:58:47;;;;;;;8.82;6.70;;;;;;;;;;5087697;28;20036;-60
2023/09/08 03:01:15;;;;;;;10.93;7.30;;;;;;;;;;5074476;28;20028;-60
2023/09/08 03:03:43;;;;;;;10.25;6.68;;;;;;;;;;5076767;28;20040;-60
2023/09/08 03:06:10;;;;;;;10.27;7.13;;;;;;;;;;5072862;28;20043;-60
2023/09/08 03:08:38;;;;;;;10.07;6.85;;;;;;;;;;5068421;28;20044;-60
2023/09/08 03:11:08;;;;;;;10.32;6.97;;;;;;;;;;5087219;28;20043;-60
2023/09/08 03:13:35;;;;;;;10.23;6.53;;;;;;;;;;5052620;28;20044;-61
2023/09/08 03:16:03;;;;;;;10.73;7.10;;;;;;;;;;5068744;28;20054;-59
2023/09/08 03:18:29;;;;;;;9.52;6.47;;;;;;;;;;5086615;28;20036;-60
2023/09/08 03:20:55;;;;;;;9.73;6.78;;;;;;;;;;5085947;28;20028;-60
2023/09/08 03:23:21;;;;;;;11.95;6.72;;;;;;;;;;5065331;28;20507;-60
2023/09/08 03:25:48;;;;;;;13.93;6.75;;;;;;;;;;5086870;28;20044;-60
2023/09/08 03:28:15;;;;;;;9.98;6.63;;;;;;;;;;5088850;28;20035;-60
2023/09/08 03:30:41;;;;;;;11.45;6.85;;;;;;;;;;5069632;28;20036;-60
2023/09/08 03:33:07;;;;;;;10.95;6.60;;;;;;;;;;5086190;28;20052;-60
2023/09/08 03:35:34;;;;;;;8.45;6.07;;;;;;;;;;5070808;28;20036;-60
2023/09/08 03:38:01;;;;;;;11.05;6.43;;;;;;;;;;5069123;28;20039;-60
2023/09/08 03:40:27;;;;;;;12.60;7.18;;;;;;;;;;5067764;28;20048;-60
2023/09/08 03:42:53;;;;;;;11.80;6.72;;;;;;;;;;5068916;28;20032;-60
2023/09/08 03:45:19;;;;;;;11.90;7.15;;;;;;;;;;5068308;28;20502;-60
2023/09/08 03:47:45;;;;;;;9.63;6.60;;;;;;;;;;5069282;28;20032;-59
2023/09/08 03:50:12;;;;;;;11.35;6.68;;;;;;;;;;5068632;28;20039;-60
2023/09/08 03:52:38;;;;;;;12.35;7.78;;;;;;;;;;5072412;28;20051;-60
2023/09/08 03:55:04;;;;;;;10.13;6.85;;;;;;;;;;5075443;28;20514;-60
2023/09/08 03:57:31;;;;;;;11.38;5.93;;;;;;;;;;5071767;28;20044;-60
2023/09/08 03:59:57;;;;;;;11.50;7.38;;;;;;;;;;5090642;28;20043;-60
2023/09/08 04:02:23;;;;;;;10.13;6.75;;;;;;;;;;5089663;28;20032;-60
2023/09/08 04:04:49;;;;;;;11.50;7.30;;;;;;;;;;5087120;28;20047;-60
2023/09/08 04:07:15;;;;;;;12.90;7.28;;;;;;;;;;5086917;28;20425;-60
2023/09/08 04:09:42;;;;;;;10.50;6.80;;;;;;;;;;5069166;28;20063;-60
2023/09/08 04:12:10;;;;;;;12.60;7.57;;;;;;;;;;5068753;28;20044;-60
2023/09/08 04:14:37;;;;;;;11.77;7.28;;;;;;;;;;5067808;28;20052;-60
2023/09/08 04:17:03;;;;;;;11.68;8.15;;;;;;;;;;5053891;28;20040;-60
2023/09/08 04:19:32;;;;;;;12.70;8.27;;;;;;;;;;5070754;28;20036;-60
2023/09/08 04:21:59;;;;;;;12.30;8.25;;;;;;;;;;5072507;28;20060;-60
2023/09/08 04:24:25;;;;;;;13.32;7.72;;;;;;;;;;5071459;28;20051;-60
2023/09/08 04:26:51;;;;;;;12.65;7.45;;;;;;;;;;5090832;28;20044;-60
2023/09/08 04:29:17;;;;;;;11.50;7.03;;;;;;;;;;5038328;28;20044;-60
2023/09/08 04:31:43;;;;;;;11.75;6.75;;;;;;;;;;5056252;28;20044;-61
2023/09/08 04:34:09;;;;;;;10.27;7.05;;;;;;;;;;5070358;28;20059;-60
2023/09/08 04:36:35;;;;;;;10.57;7.03;;;;;;;;;;5072540;28;20044;-60
2023/09/08 04:39:01;;;;;;;12.82;6.72;;;;;;;;;;5072361;28;20414;-60
2023/09/08 04:41:27;;;;;;;12.07;8.05;;;;;;;;;;5089796;28;20036;-60
2023/09/08 04:43:55;;;;;;;14.35;7.05;;;;;;;;;;5071298;28;20051;-60
2023/09/08 04:46:21;;;;;;;10.65;7.20;;;;;;;;;;5071317;28;20518;-61
2023/09/08 04:48:47;;;;;;;14.32;8.18;;;;;;;;;;5072763;28;20044;-60
2023/09/08 04:51:13;;;;;;;13.55;8.35;;;;;;;;;;5070257;28;20035;-60
2023/09/08 04:53:39;;;;;;;15.50;9.25;;;;;;;;;;5051304;28;20693;-60
2023/09/08 04:56:06;;;;;;;14.73;8.27;;;;;;;;;;5072091;28;20048;-60
2023/09/08 04:58:32;;;;;;;12.95;8.30;;;;;;;;;;5071637;28;20036;-60
2023/09/08 05:00:58;;;;;;;14.30;8.63;;;;;;;;;;5071632;28;20044;-60
2023/09/08 05:03:25;;;;;;;12.93;8.57;;;;;;;;;;5054168;28;20507;-60
2023/09/08 05:05:52;;;;;;;15.82;9.32;;;;;;;;;;5053433;28;20211;-60
2023/09/08 05:08:18;;;;;;;13.23;7.38;;;;;;;;;;5071568;28;20411;-60
2023/09/08 05:10:44;;;;;;;12.40;7.68;;;;;;;;;;5071239;28;20499;-60
2023/09/08 05:13:11;;;;;;;13.10;7.75;;;;;;;;;;5069984;28;20047;-60
2023/09/08 05:15:39;;;;;;;13.15;7.55;;;;;;;;;;5071623;28;20546;-60
2023/09/08 05:18:05;;;;;;;11.77;7.72;;;;;;;;;;5051952;28;20423;-60
2023/09/08 05:20:31;;;;;;;16.35;7.80;;;;;;;;;;5084764;28;20046;-60
2023/09/08 05:22:58;;;;;;;13.10;7.93;;;;;;;;;;5071202;28;20032;-60
2023/09/08 05:25:25;;;;;;;12.13;7.47;;;;;;;;;;5070242;28;20071;-60
2023/09/08 05:27:51;;;;;;;11.32;7.55;;;;;;;;;;5070768;28;20048;-60
2023/09/08 05:30:17;;;;;;;14.05;8.13;;;;;;;;;;5070599;28;20043;-60
2023/09/08 05:32:43;;;;;;;12.32;7.93;;;;;;;;;;5071801;28;20039;-60
2023/09/08 05:35:10;;;;;;;13.77;8.02;;;;;;;;;;5068926;28;20043;-60
2023/09/08 05:37:36;;;;;;;13.25;7.22;;;;;;;;;;5070647;28;20032;-60
2023/09/08 05:40:04;;;;;;;14.07;8.05;;;;;;;;;;5071214;28;20586;-59
2023/09/08 05:42:30;;;;;;;13.13;7.53;;;;;;;;;;5086165;28;20052;-60
2023/09/08 05:44:56;;;;;;;13.57;8.43;;;;;;;;;;5070162;28;20028;-60
2023/09/08 05:47:23;;;;;;;17.25;8.35;;;;;;;;;;5070301;28;20067;-60
2023/09/08 05:49:50;;;;;;;13.45;8.10;;;;;;;;;;5053974;28;20054;-61
2023/09/08 05:52:16;;;;;;;13.60;8.15;;;;;;;;;;5070216;28;20032;-60
2023/09/08 05:54:44;;;;;;;14.80;7.70;;;;;;;;;;5050270;28;20047;-60
2023/09/08 05:57:11;;;;;;;11.70;7.72;;;;;;;;;;5069028;28;20503;-60
2023/09/08 05:59:38;;;;;;;15.38;8.48;;;;;;;;;;5070055;28;20036;-60
2023/09/08 06:02:04;;;;;;;14.60;8.77;;;;;;;;;;5070046;28;20055;-60
2023/09/08 06:04:32;;;;;;;18.50;8.85;;;;;;;;;;5069001;28;20040;-60
2023/09/08 06:06:59;;;;;;;14.45;8.52;;;;;;;;;;5071313;28;20036;-60
2023/09/08 06:09:25;;;;;;;16.98;9.55;;;;;;;;;;5069467;28;20059;-59
2023/09/08 06:11:52;;;;;;;16.55;9.55;;;;;;;;;;5070905;28;20051;-60
2023/09/08 06:14:18;;;;;;;16.38;9.65;;;;;;;;;;5087242;28;20494;-60
2023/09/08 06:16:47;;;;;;;15.23;9.15;;;;;;;;;;5071382;28;20042;-59
2023/09/08 06:19:13;;;;;;;14.02;8.85;;;;;;;;;;5069621;28;20036;-59
2023/09/08 06:21:40;;;;;;;15.55;8.90;;;;;;;;;;5071037;28;20092;-59
2023/09/08 06:24:06;;;;;;;15.23;8.65;;;;;;;;;;5069804;28;20036;-60
2023/09/08 06:26:34;;;;;;;15.95;9.45;;;;;;;;;;5070674;28;20053;-59
2023/09/08 06:29:00;;;;;;;20.27;10.32;;;;;;;;;;5070335;28;20043;-60
2023/09/08 06:31:27;;;;;;;15.80;9.40;;;;;;;;;;5087303;28;20414;-60
2023/09/08 06:33:53;;;;;;;18.45;10.38;;;;;;;;;;5087793;28;20043;-60
2023/09/08 06:36:19;;;;;;;16.65;10.02;;;;;;;;;;5088174;28;20028;-61
2023/09/08 06:38:46;;;;;;;16.42;10.05;;;;;;;;;;5070358;28;20143;-60
2023/09/08 06:41:13;;;;;;;17.17;9.68;;;;;;;;;;5069091;28;20047;-60
2023/09/08 06:43:40;;;;;;;17.45;10.07;;;;;;;;;;5068946;28;20040;-60
2023/09/08 06:46:13;;;;;;;19.80;10.90;;;;;;;;;;5070019;28;20031;-60
2023/09/08 06:48:40;;;;;;;16.33;10.73;;;;;;;;;;5070174;28;20044;-60
2023/09/08 06:51:06;;;;;;;21.38;11.23;;;;;;;;;;5069964;28;20040;-60
2023/09/08 06:53:32;;;;;;;24.92;12.55;;;;;;;;;;5068862;28;20507;-59
2023/09/08 06:55:58;;;;;;;21.58;11.35;;;;;;;;;;5050941;28;20048;-60
2023/09/08 06:58:24;;;;;;;20.35;11.93;;;;;;;;;;5068786;28;20040;-60
2023/09/08 07:00:54;;;;;;;20.58;12.68;;;;;;;;;;5087811;28;20043;-60
2023/09/08 07:03:23;;;;;;;21.38;12.80;;;;;;;;;;5068611;28;20047;-60
2023/09/08 07:05:50;;;;;;;22.92;12.25;;;;;;;;;;5070405;28;20040;-60
2023/09/08 07:08:17;;;;;;;24.13;12.65;;;;;;;;;;5069313;28;20036;-60
2023/09/08 07:10:44;;;;;;;26.35;12.50;;;;;;;;;;5087149;28;20055;-60
2023/09/08 07:13:10;;;;;;;29.27;14.05;;;;;;;;;;5086563;28;20048;-60
2023/09/08 07:15:37;;;;;;;21.10;12.50;;;;;;;;;;5069858;28;20028;-60
2023/09/08 07:18:04;;;;;;;26.75;12.95;;;;;;;;;;5069986;28;20028;-60
2023/09/08 07:20:30;;;;;;;21.02;12.65;;;;;;;;;;5068909;28;20032;-60
2023/09/08 07:22:57;;;;;;;19.13;12.18;;;;;;;;;;5068769;28;20051;-60
2023/09/08 07:25:23;;;;;;;24.30;11.63;;;;;;;;;;5052420;28;20533;-60
2023/09/08 07:27:52;;;;;;;19.90;11.45;;;;;;;;;;5077161;28;20036;-61
2023/09/08 07:30:20;;;;;;;20.55;11.45;;;;;;;;;;5050685;28;20043;-60
2023/09/08 07:32:46;;;;;;;16.67;11.25;;;;;;;;;;5063263;28;20032;-60
2023/09/08 07:35:14;;;;;;;22.35;11.98;;;;;;;;;;5066093;28;20044;-60
2023/09/08 07:37:41;;;;;;;20.63;11.75;;;;;;;;;;5052655;28;20581;-59
2023/09/08 07:40:09;;;;;;;20.40;11.20;;;;;;;;;;5068352;28;20048;-60
2023/09/08 07:42:35;;;;;;;17.38;10.98;;;;;;;;;;5066299;28;20032;-59
2023/09/08 07:45:02;;;;;;;20.40;11.73;;;;;;;;;;5068550;28;20043;-59
2023/09/08 07:47:31;;;;;;;22.23;12.10;;;;;;;;;;5083966;28;20040;-60
2023/09/08 07:50:20;;;;;;;22.25;11.30;;;;;;;;;;5086931;28;20031;-60
2023/09/08 07:52:48;;;;;;;22.88;11.93;;;;;;;;;;5065325;28;20410;-58
2023/09/08 07:55:14;;;;;;;19.42;11.45;;;;;;;;;;5087873;28;20396;-59
2023/09/08 07:57:45;;;;;;;22.70;11.77;;;;;;;;;;5087416;28;20514;-59
2023/09/08 08:00:13;;;;;;;17.52;10.75;;;;;;;;;;5087042;28;20043;-59
2023/09/08 08:02:43;;;;;;;21.52;11.20;;;;;;;;;;5086940;28;20036;-60
2023/09/08 08:05:10;;;;;;;20.77;11.45;;;;;;;;;;5088671;28;20039;-59
2023/09/08 08:07:36;;;;;;;17.30;11.10;;;;;;;;;;5089059;28;20525;-59
2023/09/08 08:10:03;;;;;;;18.45;10.98;;;;;;;;;;5088512;28;20044;-59
2023/09/08 08:12:29;;;;;;;17.60;10.90;;;;;;;;;;5088944;28;20048;-59
2023/09/08 08:14:55;;;;;;;15.23;11.00;;;;;;;;;;5089587;28;20035;-59
2023/09/08 08:17:21;;;;;;;18.95;10.70;;;;;;;;;;5071514;28;20534;-60
2023/09/08 08:19:47;;;;;;;18.02;10.55;;;;;;;;;;5071867;28;20035;-59
2023/09/08 08:22:14;;;;;;;16.17;10.88;;;;;;;;;;5090451;28;20036;-59
2023/09/08 08:24:40;;;;;;;18.77;9.80;;;;;;;;;;5052409;28;20033;-59
2023/09/08 08:27:06;;;;;;;17.00;10.60;;;;;;;;;;5090189;28;20024;-61
2023/09/08 08:29:32;;;;;;;16.83;10.43;;;;;;;;;;5088722;28;20032;-60
2023/09/08 08:31:58;;;;;;;18.00;10.38;;;;;;;;;;5089964;28;20502;-60
2023/09/08 08:34:24;;;;;;;16.35;10.68;;;;;;;;;;5088326;28;20050;-60
2023/09/08 08:36:50;;;;;;;17.70;10.30;;;;;;;;;;5089685;28;20047;-60
2023/09/08 08:39:16;;;;;;;17.70;10.63;;;;;;;;;;5086999;28;20035;-60
2023/09/08 08:41:43;;;;;;;20.27;10.32;;;;;;;;;;5081089;28;20431;-60
2023/09/08 08:44:09;;;;;;;17.45;10.27;;;;;;;;;;5085232;28;20059;-60
2023/09/08 08:46:37;;;;;;;20.25;11.18;;;;;;;;;;5088152;28;20423;-60
2023/09/08 08:49:04;;;;;;;23.30;11.20;;;;;;;;;;5089843;28;20067;-60
2023/09/08 08:51:30;;;;;;;17.08;10.45;;;;;;;;;;5088863;28;20066;-60
2023/09/08 08:53:57;;;;;;;15.18;9.82;;;;;;;;;;5089084;28;20035;-59
2023/09/08 08:56:23;;;;;;;16.35;10.50;;;;;;;;;;5067958;28;20032;-60
2023/09/08 08:58:50;;;;;;;16.92;10.35;;;;;;;;;;5088545;28;20036;-60
2023/09/08 09:01:21;;;;;;;17.33;10.57;;;;;;;;;;5086784;28;20411;-60
2023/09/08 09:03:49;;;;;;;18.25;10.02;;;;;;;;;;5084955;28;20419;-60
2023/09/08 09:06:16;;;;;;;15.35;10.43;;;;;;;;;;5082442;28;20032;-60
2023/09/08 09:08:43;;;;;;;18.35;10.23;;;;;;;;;;5085866;28;20052;-60
2023/09/08 09:11:10;;;;;;;19.95;10.43;;;;;;;;;;5088774;28;20040;-60
2023/09/08 09:13:37;;;;;;;17.70;9.38;;;;;;;;;;5087428;28;20048;-60
2023/09/08 09:16:07;;;;;;;14.35;9.55;;;;;;;;;;5088328;28;20027;-59
2023/09/08 09:18:33;;;;;;;15.77;9.50;;;;;;;;;;5087180;28;20047;-61
2023/09/08 09:21:01;;;;;;;19.15;9.85;;;;;;;;;;5088646;28;20040;-60
2023/09/08 09:23:27;;;;;;;16.80;10.10;;;;;;;;;;5086314;28;20055;-61
2023/09/08 09:25:54;;;;;;;12.40;9.23;;;;;;;;;;5088823;28;20032;-61
2023/09/08 09:28:20;;;;;;;16.73;9.52;;;;;;;;;;5087466;28;20051;-61
2023/09/08 09:30:48;;;;;;;13.48;9.57;;;;;;;;;;5070702;28;20047;-61
2023/09/08 09:33:15;;;;;;;16.48;8.43;;;;;;;;;;5086025;28;20051;-62
2023/09/08 09:35:41;;;;;;;12.43;8.98;;;;;;;;;;5088263;28;20032;-61
2023/09/08 09:38:08;;;;;;;13.40;9.43;;;;;;;;;;5089040;28;20028;-60
2023/09/08 09:40:34;;;;;;;15.73;9.35;;;;;;;;;;5069909;28;20050;-61
2023/09/08 09:43:00;;;;;;;14.23;8.90;;;;;;;;;;5070052;28;20055;-60
2023/09/08 09:45:27;;;;;;;14.25;9.00;;;;;;;;;;5087879;28;20067;-60
2023/09/08 09:47:53;;;;;;;21.50;9.40;;;;;;;;;;5087738;28;20052;-61
2023/09/08 09:50:35;;;;;;;11.93;8.88;;;;;;;;;;5087865;28;20032;-61
2023/09/08 09:53:08;;;;;;;13.07;9.10;;;;;;;;;;5086192;28;20754;-61
2023/09/08 09:55:36;;;;;;;12.93;9.18;;;;;;;;;;5085943;28;20118;-61
2023/09/08 09:58:03;;;;;;;12.70;8.82;;;;;;;;;;5086897;28;20491;-59
2023/09/08 10:00:32;;;;;;;11.98;8.32;;;;;;;;;;5087463;28;20051;-60
2023/09/08 10:02:59;;;;;;;;;;;;;;;;;;5086220;28;20052;-59
2023/09/08 10:05:25;;;;;;;13.00;7.68;;;;;;;;;;5087680;28;19919;-60
2023/09/08 10:07:52;;;;;;;10.88;7.80;;;;;;;;;;5088920;28;20039;-61
2023/09/08 10:10:20;;;;;;;12.13;8.50;;;;;;;;;;5087006;28;20047;-61
2023/09/08 10:12:52;;;;;;;9.35;8.30;;;;;;;;;;5088385;28;20027;-61
2023/09/08 10:15:22;;;;;;;12.52;8.10;;;;;;;;;;5087843;28;20052;-61
2023/09/08 10:17:54;;;;;;;12.57;7.90;;;;;;;;;;5086356;28;20036;-61
2023/09/08 10:20:26;;;;;;;8.68;7.78;;;;;;;;;;5086910;28;20391;-61
2023/09/08 10:22:56;;;;;;;10.57;8.18;;;;;;;;;;5066735;28;20533;-61
2023/09/08 10:25:24;;;;;;;9.77;8.02;;;;;;;;;;5087006;28;20043;-62
2023/09/08 10:27:51;;;;;;;11.68;8.35;;;;;;;;;;5087981;28;20040;-61
2023/09/08 10:30:20;;;;;;;12.77;8.10;;;;;;;;;;5087646;28;20028;-62
2023/09/08 10:32:49;;;;;;;13.40;8.50;;;;;;;;;;5085797;28;20032;-61
2023/09/08 10:35:19;;;;;;;9.57;8.38;;;;;;;;;;5085524;28;20043;-61
2023/09/08 10:37:45;;;;;;;8.90;7.93;;;;;;;;;;5050791;28;20047;-62
2023/09/08 10:40:21;;;;;;;10.38;8.23;;;;;;;;;;5084148;28;20056;-62
2023/09/08 10:42:48;;;;;;;11.27;7.93;;;;;;;;;;5068978;28;20399;-62
2023/09/08 10:45:16;;;;;;;9.55;8.18;;;;;;;;;;5086567;28;20039;-61
2023/09/08 10:47:45;;;;;;;10.30;8.10;;;;;;;;;;5086687;28;20055;-61
2023/09/08 10:50:18;;;;;;;;;;;;;;;;;;5086859;28;20044;-62
2023/09/08 10:52:45;;;;;;;11.98;7.80;;;;;;;;;;5087648;28;19912;-60
2023/09/08 10:55:14;;;;;;;9.25;8.20;;;;;;;;;;5086136;28;20403;-61
2023/09/08 10:57:45;;;;;;;9.07;8.07;;;;;;;;;;5086105;28;20039;-61
2023/09/08 11:00:17;;;;;;;9.63;7.65;;;;;;;;;;5086303;28;20043;-62
2023/09/08 11:02:54;;;;;;;8.95;7.53;;;;;;;;;;5086676;28;20056;-62
2023/09/08 11:05:21;;;;;;;11.60;8.30;;;;;;;;;;5068306;28;20043;-62
2023/09/08 11:07:52;;;;;;;10.82;8.30;;;;;;;;;;5088637;28;20402;-63
2023/09/08 11:10:18;;;;;;;10.48;7.47;;;;;;;;;;5086616;28;20040;-62
2023/09/08 11:12:44;;;;;;;11.85;7.65;;;;;;;;;;5086847;28;20043;-62
2023/09/08 11:15:10;;;;;;;9.38;7.45;;;;;;;;;;5086698;28;20073;-62
2023/09/08 11:17:41;;;;;;;7.80;6.72;;;;;;;;;;5086713;28;20044;-63
2023/09/08 11:20:10;;;;;;;9.27;7.20;;;;;;;;;;5068213;28;20052;-62
2023/09/08 11:22:37;;;;;;;8.55;7.63;;;;;;;;;;5068377;28;20048;-62
2023/09/08 11:25:06;;;;;;;12.57;7.22;;;;;;;;;;5086134;28;20040;-64
2023/09/08 11:27:33;;;;;;;10.45;6.82;;;;;;;;;;5086274;28;20036;-62
2023/09/08 11:29:59;;;;;;;9.40;6.80;;;;;;;;;;5091079;28;20058;-62
2023/09/08 11:32:32;;;;;;;8.95;7.30;;;;;;;;;;5090110;28;20418;-64
2023/09/08 11:35:06;;;;;;;12.63;6.97;;;;;;;;;;5091391;28;20032;-63
2023/09/08 11:37:36;;;;;;;8.18;7.18;;;;;;;;;;5090808;28;20028;-63
2023/09/08 11:40:03;;;;;;;8.18;6.75;;;;;;;;;;5090952;28;20036;-62
2023/09/08 11:42:29;;;;;;;9.40;6.95;;;;;;;;;;5090742;28;20518;-63
2023/09/08 11:44:57;;;;;;;12.13;6.97;;;;;;;;;;5072536;28;20495;-63
2023/09/08 11:47:24;;;;;;;9.52;6.82;;;;;;;;;;5090655;28;20047;-62
2023/09/08 11:49:52;;;;;;;7.45;6.30;;;;;;;;;;5091134;28;20043;-62
2023/09/08 11:52:18;;;;;;;10.45;6.60;;;;;;;;;;5090663;28;20052;-63
2023/09/08 11:54:44;;;;;;;7.70;7.00;;;;;;;;;;5089833;28;20458;-62
2023/09/08 11:57:11;;;;;;;8.20;6.75;;;;;;;;;;5091304;28;20036;-64
2023/09/08 11:59:38;;;;;;;8.20;7.15;;;;;;;;;;5089380;28;20024;-63
2023/09/08 12:02:05;;;;;;;8.00;7.15;;;;;;;;;;5091794;28;20036;-63
2023/09/08 12:04:35;;;;;;;10.38;7.20;;;;;;;;;;5089487;28;20059;-62
2023/09/08 12:07:01;;;;;;;9.00;6.97;;;;;;;;;;5091109;28;20044;-62
2023/09/08 12:09:27;;;;;;;9.00;6.78;;;;;;;;;;5071459;28;20027;-62
2023/09/08 12:11:53;;;;;;;8.23;6.80;;;;;;;;;;5090751;28;20043;-62
2023/09/08 12:14:19;;;;;;;8.02;6.22;;;;;;;;;;5071921;28;20051;-63
2023/09/08 12:16:46;;;;;;;7.40;6.53;;;;;;;;;;5072636;28;20032;-62
2023/09/08 12:19:31;;;;;;;8.52;6.55;;;;;;;;;;5089943;28;20047;-63
2023/09/08 12:22:02;;;;;;;9.77;6.75;;;;;;;;;;5090974;28;20425;-64
2023/09/08 12:24:51;;;;;;;7.28;6.10;;;;;;;;;;5088981;28;20047;-64
2023/09/08 12:27:18;;;;;;;7.20;6.50;;;;;;;;;;5070986;28;20040;-63
2023/09/08 12:29:58;;;;;;;9.37;6.57;;;;;;;;;;5088526;28;20418;-64
2023/09/08 12:32:25;;;;;;;10.95;6.53;;;;;;;;;;5090640;28;20398;-62
2023/09/08 12:34:52;;;;;;;10.00;6.00;;;;;;;;;;5090197;28;20032;-62
2023/09/08 12:37:22;;;;;;;8.00;5.78;;;;;;;;;;5090049;28;20052;-63
2023/09/08 12:39:48;;;;;;;7.05;6.35;;;;;;;;;;5070006;28;20494;-63
2023/09/08 12:42:15;;;;;;;9.55;7.00;;;;;;;;;;5090828;28;20032;-63
2023/09/08 12:44:41;;;;;;;6.93;6.30;;;;;;;;;;5088718;28;20450;-63
2023/09/08 12:47:09;;;;;;;7.40;6.63;;;;;;;;;;5071812;28;20430;-63
2023/09/08 12:49:35;;;;;;;9.15;6.63;;;;;;;;;;5089229;28;20047;-62
2023/09/08 12:52:01;;;;;;;7.85;6.50;;;;;;;;;;5090531;28;20027;-63
2023/09/08 12:54:28;;;;;;;10.32;6.28;;;;;;;;;;5087923;28;20055;-63
2023/09/08 12:56:54;;;;;;;7.30;5.78;;;;;;;;;;5089896;28;20052;-63
2023/09/08 12:59:20;;;;;;;8.95;6.15;;;;;;;;;;5067148;28;20154;-64
2023/09/08 13:01:46;;;;;;;8.70;6.30;;;;;;;;;;5087237;28;20051;-62
2023/09/08 13:04:12;;;;;;;6.53;5.85;;;;;;;;;;5088769;28;20043;-63
2023/09/08 13:06:38;;;;;;;7.45;6.30;;;;;;;;;;5089574;28;20418;-63
2023/09/08 13:09:04;;;;;;;8.18;6.20;;;;;;;;;;5069784;28;20475;-62
2023/09/08 13:11:31;;;;;;;7.28;6.35;;;;;;;;;;5089590;28;20036;-62
2023/09/08 13:13:57;;;;;;;7.03;6.20;;;;;;;;;;5070843;28;20028;-62
2023/09/08 13:16:23;;;;;;;7.75;6.13;;;;;;;;;;5089446;28;20048;-64
2023/09/08 13:18:49;;;;;;;6.68;5.97;;;;;;;;;;5090248;28;20036;-63
2023/09/08 13:21:15;;;;;;;6.90;6.20;;;;;;;;;;5089552;28;20403;-63
2023/09/08 13:23:41;;;;;;;7.03;6.18;;;;;;;;;;5088336;28;20438;-64
2023/09/08 13:26:07;;;;;;;7.80;6.30;;;;;;;;;;5090247;28;20422;-64
2023/09/08 13:28:34;;;;;;;11.13;6.35;;;;;;;;;;5089440;28;20058;-63
2023/09/08 13:31:00;;;;;;;7.00;6.30;;;;;;;;;;5089869;28;20551;-64
2023/09/08 13:33:26;;;;;;;6.55;5.90;;;;;;;;;;5088600;28;20019;-63
2023/09/08 13:35:52;;;;;;;6.90;6.20;;;;;;;;;;5089261;28;20035;-62
2023/09/08 13:38:18;;;;;;;8.27;6.13;;;;;;;;;;5089227;28;20044;-63
2023/09/08 13:40:44;;;;;;;6.75;6.03;;;;;;;;;;5088649;28;20031;-64
2023/09/08 13:43:11;;;;;;;7.47;6.10;;;;;;;;;;5088386;28;20035;-63
2023/09/08 13:45:37;;;;;;;7.72;5.88;;;;;;;;;;5086516;28;20040;-63
2023/09/08 13:48:06;;;;;;;9.13;5.90;;;;;;;;;;5089507;28;20036;-64
2023/09/08 13:50:32;;;;;;;6.90;6.10;;;;;;;;;;5089029;28;20042;-63
2023/09/08 13:52:58;;;;;;;8.25;6.00;;;;;;;;;;5087856;28;20680;-64
2023/09/08 13:55:24;;;;;;;6.53;5.88;;;;;;;;;;5088184;28;20043;-63
2023/09/08 13:57:51;;;;;;;6.70;6.10;;;;;;;;;;5088946;28;20043;-64
2023/09/08 14:00:17;;;;;;;6.88;5.32;;;;;;;;;;5088265;28;20036;-64
2023/09/08 14:02:44;;;;;;;8.07;5.72;;;;;;;;;;5087339;28;20502;-63
2023/09/08 14:05:10;;;;;;;7.00;5.78;;;;;;;;;;5087998;28;20032;-63
2023/09/08 14:07:36;;;;;;;8.85;5.53;;;;;;;;;;5088149;28;20043;-63
2023/09/08 14:10:07;;;;;;;7.88;6.00;;;;;;;;;;5088765;28;20043;-63
2023/09/08 14:12:34;;;;;;;7.75;5.80;;;;;;;;;;5085815;28;20048;-63
2023/09/08 14:15:00;;;;;;;7.15;5.68;;;;;;;;;;5087981;28;20035;-63
2023/09/08 14:17:26;;;;;;;7.68;5.82;;;;;;;;;;5088686;28;20035;-62
2023/09/08 14:19:52;;;;;;;7.75;5.72;;;;;;;;;;5087980;28;20043;-63
2023/09/08 14:22:18;;;;;;;6.47;5.50;;;;;;;;;;5087080;28;20065;-63
2023/09/08 14:24:44;;;;;;;6.38;5.72;;;;;;;;;;5087654;28;20036;-63
2023/09/08 14:27:10;;;;;;;6.15;5.55;;;;;;;;;;5088019;28;20418;-63
2023/09/08 14:29:36;;;;;;;6.03;5.47;;;;;;;;;;5087910;28;20669;-63
2023/09/08 14:32:02;;;;;;;6.03;5.47;;;;;;;;;;5088633;28;20124;-64
2023/09/08 14:34:29;;;;;;;6.28;5.32;;;;;;;;;;5087366;28;20028;-63